Terminal Aerodrome Forecast
Issued by NWS Wilmington, OH

Home | Current Version | Previous Version | Text Only | Print | Product List | Glossary On
Versions: 1 2 3 4 5 6 7 8 9 10 11 12 13 14 15 16 17
724
FTUS41 KILN 231201 AAA
TAFILN
TAF AMD
KILN 231201Z 2312/2412 04014G21KT P6SM FEW100 SCT200
     FM231700 06014G22KT P6SM SCT100 BKN240
     FM240000 05007KT P6SM FEW240=

USA.gov is the U.S. government's official web portal to all federal, state and local government web resources and services.